createdAt,value
2023-03-12T00:01:59.806Z,2.37
2023-03-12T00:04:26.866Z,2.50
2023-03-12T00:06:53.450Z,2.21
2023-03-12T00:09:20.142Z,2.26
2023-03-12T00:11:46.706Z,2.27
2023-03-12T00:14:13.263Z,2.43
2023-03-12T00:16:39.800Z,2.23
2023-03-12T00:19:06.374Z,2.15
2023-03-12T00:21:33.090Z,2.31
2023-03-12T00:23:59.730Z,2.46
2023-03-12T00:26:26.313Z,2.42
2023-03-12T00:28:53.881Z,2.32
2023-03-12T00:31:29.658Z,2.35
2023-03-12T00:33:56.544Z,2.32
2023-03-12T00:36:27.047Z,2.26
2023-03-12T00:38:54.825Z,2.34
2023-03-12T00:41:21.940Z,2.40
2023-03-12T00:43:49.855Z,2.30
2023-03-12T00:46:16.563Z,2.09
2023-03-12T00:48:43.556Z,2.15
2023-03-12T00:51:10.983Z,2.26
2023-03-12T00:53:37.686Z,2.26
2023-03-12T00:56:05.381Z,2.28
2023-03-12T00:58:32.097Z,2.31
2023-03-12T01:00:58.959Z,2.30
2023-03-12T01:03:25.735Z,1.99
2023-03-12T01:05:55.166Z,2.18
2023-03-12T01:08:22.356Z,2.14
2023-03-12T01:10:48.900Z,2.03
2023-03-12T01:13:15.561Z,2.12
2023-03-12T01:15:42.773Z,2.25
2023-03-12T01:18:09.341Z,2.38
2023-03-12T01:20:36.270Z,2.34
2023-03-12T01:23:02.901Z,2.23
2023-03-12T01:25:29.546Z,2.30
2023-03-12T01:27:56.086Z,2.31
2023-03-12T01:30:23.761Z,2.51
2023-03-12T01:32:51.604Z,2.51
2023-03-12T01:35:18.581Z,2.42
2023-03-12T01:37:45.315Z,2.44
2023-03-12T01:40:16.068Z,2.53
2023-03-12T01:42:42.687Z,2.53
2023-03-12T01:45:46.766Z,2.51
2023-03-12T01:48:13.377Z,2.21
2023-03-12T01:50:39.923Z,2.07
2023-03-12T01:53:06.576Z,2.15
2023-03-12T01:55:33.258Z,2.13
2023-03-12T01:58:01.642Z,2.39
2023-03-12T02:00:28.338Z,2.41
2023-03-12T02:03:00.013Z,2.48
2023-03-12T02:05:35.320Z,2.42
2023-03-12T02:08:01.982Z,2.51
2023-03-12T02:10:28.889Z,2.65
2023-03-12T02:12:55.456Z,2.59
2023-03-12T02:15:22.261Z,2.52
2023-03-12T02:17:48.854Z,2.61
2023-03-12T02:20:20.828Z,2.44
2023-03-12T02:22:52.029Z,2.45
2023-03-12T02:25:25.458Z,2.62
2023-03-12T02:27:52.794Z,2.68
2023-03-12T02:30:20.067Z,2.76
2023-03-12T02:32:47.556Z,2.82
2023-03-12T02:35:16.069Z,2.93
2023-03-12T02:37:53.809Z,2.81
2023-03-12T02:40:35.248Z,2.84
2023-03-12T02:43:02.727Z,2.81
2023-03-12T02:45:29.972Z,2.83
2023-03-12T02:47:56.537Z,2.88
2023-03-12T02:50:23.382Z,2.93
2023-03-12T02:52:50.027Z,2.38
2023-03-12T02:55:17.414Z,2.72
2023-03-12T02:57:44.104Z,2.90
2023-03-12T03:00:14.652Z,2.92
2023-03-12T03:02:45.301Z,3.03
2023-03-12T03:05:12.380Z,3.09
2023-03-12T03:07:39.495Z,2.90
2023-03-12T03:10:06.666Z,2.96
2023-03-12T03:12:35.564Z,2.91
2023-03-12T03:15:04.326Z,2.85
2023-03-12T03:17:30.985Z,2.89
2023-03-12T03:19:57.581Z,2.99
2023-03-12T03:22:24.222Z,2.99
2023-03-12T03:24:50.834Z,2.95
2023-03-12T03:27:17.419Z,2.84
2023-03-12T03:29:46.172Z,2.90
2023-03-12T03:32:13.321Z,2.91
2023-03-12T03:34:40.004Z,2.81
2023-03-12T03:37:06.738Z,2.78
2023-03-12T03:39:34.666Z,2.65
2023-03-12T03:42:01.573Z,2.78
2023-03-12T03:44:31.103Z,2.64
2023-03-12T03:46:57.788Z,2.43
2023-03-12T03:49:24.381Z,2.53
2023-03-12T03:51:55.315Z,2.58
2023-03-12T03:54:31.190Z,2.63
2023-03-12T03:56:58.273Z,2.54
2023-03-12T03:59:25.061Z,2.59
2023-03-12T04:01:52.384Z,2.48
2023-03-12T04:04:18.973Z,2.41
2023-03-12T04:06:45.592Z,2.30
2023-03-12T04:09:13.958Z,2.49
2023-03-12T04:11:40.685Z,2.45
2023-03-12T04:14:08.769Z,2.43
2023-03-12T04:16:38.034Z,2.46
2023-03-12T04:19:05.139Z,2.42
2023-03-12T04:21:31.853Z,2.41
2023-03-12T04:23:58.497Z,2.35
2023-03-12T04:26:29.298Z,2.35
2023-03-12T04:28:56.689Z,2.34
2023-03-12T04:31:23.300Z,2.06
2023-03-12T04:33:50.893Z,1.94
2023-03-12T04:36:19.708Z,2.06
2023-03-12T04:38:48.554Z,2.22
2023-03-12T04:41:17.641Z,2.14
2023-03-12T04:43:51.739Z,2.15
2023-03-12T04:46:19.399Z,2.14
2023-03-12T04:48:46.767Z,2.13
2023-03-12T04:51:14.446Z,2.19
2023-03-12T04:53:41.249Z,1.94
2023-03-12T04:56:09.878Z,1.98
2023-03-12T04:58:37.689Z,2.10
2023-03-12T05:01:05.683Z,2.09
2023-03-12T05:03:32.678Z,2.09
2023-03-12T05:06:00.752Z,1.99
2023-03-12T05:08:27.405Z,1.92
2023-03-12T05:10:54.112Z,1.98
2023-03-12T05:13:22.522Z,1.99
2023-03-12T05:15:51.987Z,2.04
2023-03-12T05:18:21.618Z,2.05
2023-03-12T05:20:58.425Z,2.06
2023-03-12T05:23:25.015Z,2.08
2023-03-12T05:25:51.789Z,2.07
2023-03-12T05:28:20.210Z,2.00
2023-03-12T05:30:46.922Z,2.01
2023-03-12T05:33:13.617Z,1.97
2023-03-12T05:35:40.186Z,2.02
2023-03-12T05:38:06.780Z,1.97
2023-03-12T05:40:33.387Z,1.97
2023-03-12T05:42:59.933Z,1.99
2023-03-12T05:45:27.186Z,1.80
2023-03-12T05:47:56.063Z,1.81
2023-03-12T05:50:22.799Z,1.81
2023-03-12T05:52:49.569Z,1.90
2023-03-12T05:55:16.323Z,1.94
2023-03-12T05:57:42.970Z,1.90
2023-03-12T06:00:10.579Z,1.89
2023-03-12T06:02:40.131Z,1.97
2023-03-12T06:05:11.222Z,2.01
2023-03-12T06:07:38.198Z,1.94
2023-03-12T06:10:05.132Z,1.91
2023-03-12T06:12:31.757Z,1.82
2023-03-12T06:14:58.590Z,1.95
2023-03-12T06:17:25.321Z,1.97
2023-03-12T06:19:52.959Z,1.99
2023-03-12T06:22:20.762Z,2.05
2023-03-12T06:24:48.359Z,2.01
2023-03-12T06:27:16.774Z,1.96
2023-03-12T06:29:43.349Z,2.02
2023-03-12T06:32:09.888Z,2.08
2023-03-12T06:34:36.438Z,2.13
2023-03-12T06:37:03.065Z,2.04
2023-03-12T06:39:30.195Z,2.09
2023-03-12T06:41:56.856Z,2.17
2023-03-12T06:44:23.415Z,2.27
2023-03-12T06:46:50.052Z,2.29
2023-03-12T06:49:16.656Z,2.34
2023-03-12T06:51:43.237Z,2.44
2023-03-12T06:54:09.861Z,2.38
2023-03-12T06:56:36.559Z,2.55
2023-03-12T06:59:03.112Z,2.56
2023-03-12T07:01:29.677Z,2.66
2023-03-12T07:03:56.221Z,2.47
2023-03-12T07:06:24.137Z,2.65
2023-03-12T07:08:50.945Z,2.76
2023-03-12T07:11:20.413Z,2.76
2023-03-12T07:13:47.005Z,2.88
2023-03-12T07:16:14.038Z,2.83
2023-03-12T07:18:40.727Z,2.88
2023-03-12T07:21:07.291Z,3.08
2023-03-12T07:23:33.847Z,3.15
2023-03-12T07:26:00.394Z,3.16
2023-03-12T07:28:26.976Z,3.25
2023-03-12T07:30:53.542Z,3.31
2023-03-12T07:33:21.629Z,3.37
2023-03-12T07:35:51.567Z,3.57
2023-03-12T07:38:18.513Z,3.63
2023-03-12T07:40:45.276Z,3.87
2023-03-12T07:43:12.916Z,4.13
2023-03-12T07:45:41.240Z,4.24
2023-03-12T07:48:08.510Z,4.36
2023-03-12T07:50:35.902Z,4.39
2023-03-12T07:53:02.582Z,4.52
2023-03-12T07:55:29.160Z,4.70
2023-03-12T07:57:58.489Z,5.12
2023-03-12T08:00:26.308Z,5.32
2023-03-12T08:02:53.226Z,5.70
2023-03-12T08:05:20.313Z,5.98
2023-03-12T08:07:47.084Z,6.16
2023-03-12T08:10:14.037Z,6.43
2023-03-12T08:12:40.692Z,6.62
2023-03-12T08:15:08.506Z,6.73
2023-03-12T08:17:35.269Z,6.77
2023-03-12T08:20:01.806Z,7.12
2023-03-12T08:22:28.369Z,7.28
2023-03-12T08:24:55.005Z,7.65
2023-03-12T08:27:21.613Z,7.80
2023-03-12T08:29:48.209Z,8.03
2023-03-12T08:32:14.959Z,8.25
2023-03-12T08:34:41.816Z,7.86
2023-03-12T08:37:08.525Z,8.27
2023-03-12T08:39:35.144Z,8.54
2023-03-12T08:42:01.744Z,7.71
2023-03-12T08:44:28.493Z,8.22
2023-03-12T08:46:55.136Z,8.87
2023-03-12T08:49:22.277Z,9.11
2023-03-12T08:51:49.216Z,9.33
2023-03-12T08:54:15.818Z,9.48
2023-03-12T08:56:43.636Z,9.70
2023-03-12T08:59:13.648Z,9.84
2023-03-12T09:01:43.425Z,9.74
2023-03-12T09:04:10.530Z,9.69
2023-03-12T09:06:38.544Z,9.94
2023-03-12T09:09:05.750Z,10.32
2023-03-12T09:11:33.930Z,10.42
2023-03-12T09:16:47.655Z,10.65
2023-03-12T09:19:14.347Z,10.88
2023-03-12T09:21:40.919Z,10.83
2023-03-12T09:24:07.739Z,11.05
2023-03-12T09:26:34.533Z,10.93
2023-03-12T09:29:01.133Z,10.70
2023-03-12T09:31:27.958Z,10.67
2023-03-12T09:33:54.529Z,10.86
2023-03-12T09:36:21.141Z,11.16
2023-03-12T09:38:47.747Z,10.94
2023-03-12T09:41:18.949Z,11.39
2023-03-12T09:43:53.193Z,11.64
2023-03-12T09:46:27.481Z,11.86
2023-03-12T09:48:57.398Z,11.91
2023-03-12T09:51:45.154Z,12.01
2023-03-12T09:54:23.699Z,12.12
2023-03-12T09:56:51.588Z,11.86
2023-03-12T09:59:18.365Z,11.75
2023-03-12T10:01:48.247Z,11.81
2023-03-12T10:04:58.018Z,11.73
2023-03-12T10:07:49.716Z,11.75
2023-03-12T10:10:30.835Z,11.71
2023-03-12T10:13:23.921Z,11.60
2023-03-12T10:16:23.575Z,11.69
2023-03-12T10:19:00.353Z,11.52
2023-03-12T10:21:31.776Z,11.57
2023-03-12T10:24:25.111Z,10.14
2023-03-12T10:26:54.508Z,11.25
2023-03-12T10:29:27.196Z,11.97
2023-03-12T10:32:07.927Z,12.28
2023-03-12T10:34:55.367Z,12.33
2023-03-12T10:37:48.316Z,12.50
2023-03-12T10:40:17.894Z,12.48
2023-03-12T10:42:44.568Z,12.42
2023-03-12T10:45:21.493Z,12.58
2023-03-12T10:47:57.317Z,12.80
2023-03-12T10:50:29.690Z,12.95
2023-03-12T10:53:28.638Z,13.31
2023-03-12T10:56:10.345Z,13.69
2023-03-12T10:58:39.643Z,13.74
2023-03-12T11:01:31.694Z,13.25
2023-03-12T11:04:19.129Z,13.35
2023-03-12T11:07:05.895Z,13.27
2023-03-12T11:09:32.555Z,13.55
2023-03-12T11:11:59.110Z,13.73
2023-03-12T11:14:28.003Z,13.48
2023-03-12T11:16:55.349Z,13.23
2023-03-12T11:19:34.112Z,13.04
2023-03-12T11:22:09.020Z,12.96
2023-03-12T11:24:36.193Z,12.64
2023-03-12T11:27:14.112Z,12.34
2023-03-12T11:29:45.809Z,11.97
2023-03-12T11:32:19.102Z,12.19
2023-03-12T11:34:49.821Z,12.16
2023-03-12T11:37:38.608Z,12.43
2023-03-12T11:40:31.644Z,12.48
2023-03-12T11:43:01.138Z,12.14
2023-03-12T11:45:37.149Z,11.95
2023-03-12T11:48:06.613Z,11.72
2023-03-12T11:50:45.670Z,11.43
2023-03-12T11:53:33.623Z,10.99
2023-03-12T11:56:22.366Z,10.84
2023-03-12T11:59:11.395Z,10.63
2023-03-12T12:01:53.158Z,10.29
2023-03-12T12:04:44.841Z,10.25
2023-03-12T12:07:37.831Z,10.33
2023-03-12T12:10:25.420Z,10.22
2023-03-12T12:12:59.552Z,10.45
2023-03-12T12:15:41.991Z,10.51
2023-03-12T12:18:36.080Z,10.49
2023-03-12T12:21:09.013Z,10.38
2023-03-12T12:23:57.633Z,10.44
2023-03-12T12:26:46.113Z,10.44
2023-03-12T12:29:16.149Z,10.54
2023-03-12T12:31:57.284Z,10.05
2023-03-12T12:34:45.262Z,10.08
2023-03-12T12:37:30.174Z,9.77
2023-03-12T12:40:08.871Z,9.53
2023-03-12T12:42:39.461Z,9.16
2023-03-12T12:45:07.071Z,9.03
2023-03-12T12:47:47.446Z,8.97
2023-03-12T12:50:23.038Z,8.81
2023-03-12T12:52:54.246Z,8.92
2023-03-12T12:55:33.100Z,9.10
2023-03-12T12:58:05.005Z,9.21
2023-03-12T13:00:43.097Z,9.22
2023-03-12T13:03:19.186Z,9.20
2023-03-12T13:05:53.211Z,9.21
2023-03-12T13:08:44.592Z,9.11
2023-03-12T13:11:20.418Z,9.04
2023-03-12T13:14:12.055Z,8.90
2023-03-12T13:16:40.294Z,9.06
2023-03-12T13:19:16.271Z,9.10
2023-03-12T13:22:30.965Z,9.02
2023-03-12T13:25:17.500Z,8.66
2023-03-12T13:27:45.251Z,8.46
2023-03-12T13:30:33.604Z,8.52
2023-03-12T13:33:01.828Z,8.50
2023-03-12T13:35:33.278Z,8.47
2023-03-12T13:38:02.576Z,8.41
2023-03-12T13:40:29.129Z,8.19
2023-03-12T13:43:07.806Z,7.86
2023-03-12T13:45:41.546Z,7.99
2023-03-12T13:48:19.076Z,8.02
2023-03-12T13:51:01.646Z,8.07
2023-03-12T13:53:33.649Z,8.10
2023-03-12T13:56:07.739Z,8.15
2023-03-12T13:59:05.470Z,8.11
2023-03-12T14:01:36.938Z,8.13
2023-03-12T14:04:17.593Z,8.17
2023-03-12T14:07:09.907Z,8.22
2023-03-12T14:09:45.869Z,8.21
2023-03-12T14:12:27.849Z,8.19
2023-03-12T14:15:09.633Z,8.12
2023-03-12T14:17:36.794Z,8.06
2023-03-12T14:20:21.492Z,7.90
2023-03-12T14:22:54.242Z,8.05
2023-03-12T14:25:37.285Z,7.95
2023-03-12T14:28:10.917Z,7.41
2023-03-12T14:30:58.868Z,7.49
2023-03-12T14:33:27.742Z,7.19
2023-03-12T14:36:07.604Z,7.45
2023-03-12T14:38:43.546Z,7.66
2023-03-12T14:41:19.924Z,7.52
2023-03-12T14:43:46.700Z,7.51
2023-03-12T14:46:19.357Z,7.43
2023-03-12T14:48:49.506Z,7.46
2023-03-12T14:51:24.686Z,7.39
2023-03-12T14:53:51.723Z,7.40
2023-03-12T14:56:34.815Z,7.45
2023-03-12T14:59:29.338Z,7.10
2023-03-12T15:02:02.055Z,7.27
2023-03-12T15:04:29.476Z,7.32
2023-03-12T15:06:59.005Z,7.33
2023-03-12T15:09:28.105Z,7.23
2023-03-12T15:11:59.982Z,7.07
2023-03-12T15:14:29.579Z,7.12
2023-03-12T15:16:58.354Z,7.26
2023-03-12T15:19:44.578Z,7.25
2023-03-12T15:22:17.741Z,7.00
2023-03-12T15:24:44.572Z,7.06
2023-03-12T15:27:32.753Z,7.11
2023-03-12T15:30:01.012Z,7.00
2023-03-12T15:32:29.831Z,6.92
2023-03-12T15:34:59.147Z,7.05
2023-03-12T15:37:41.324Z,7.15
2023-03-12T15:40:20.452Z,7.20
2023-03-12T15:42:47.469Z,7.14
2023-03-12T15:45:26.125Z,7.16
2023-03-12T15:47:53.901Z,7.17
2023-03-12T15:50:23.280Z,7.10
2023-03-12T15:53:01.474Z,6.76
2023-03-12T15:55:30.132Z,6.86
2023-03-12T15:57:57.872Z,7.07
2023-03-12T16:00:31.350Z,7.27
2023-03-12T16:03:06.025Z,7.09
2023-03-12T16:05:34.797Z,7.10
2023-03-12T16:08:15.899Z,6.96
2023-03-12T16:10:42.489Z,6.91
2023-03-12T16:13:13.526Z,6.80
2023-03-12T16:15:40.580Z,6.75
2023-03-12T16:18:12.860Z,6.55
2023-03-12T16:20:39.445Z,6.57
2023-03-12T16:23:06.029Z,6.33
2023-03-12T16:25:32.749Z,6.54
2023-03-12T16:28:01.940Z,6.59
2023-03-12T16:30:31.361Z,6.55
2023-03-12T16:32:59.176Z,6.66
2023-03-12T16:35:28.060Z,6.57
2023-03-12T16:37:55.789Z,6.42
2023-03-12T16:40:32.997Z,6.37
2023-03-12T16:43:03.514Z,6.22
2023-03-12T16:45:31.954Z,6.36
2023-03-12T16:48:00.236Z,6.33
2023-03-12T16:50:27.610Z,6.25
2023-03-12T16:52:54.427Z,6.32
2023-03-12T16:55:27.804Z,6.31
2023-03-12T16:57:57.894Z,6.39
2023-03-12T17:00:27.310Z,6.43
2023-03-12T17:02:57.843Z,6.15
2023-03-12T17:05:26.585Z,6.29
2023-03-12T17:07:53.674Z,6.33
2023-03-12T17:10:20.389Z,6.38
2023-03-12T17:12:48.416Z,6.29
2023-03-12T17:15:20.845Z,6.33
2023-03-12T17:17:48.275Z,6.37
2023-03-12T17:20:16.234Z,6.48
2023-03-12T17:22:43.164Z,6.38
2023-03-12T17:25:21.952Z,6.35
2023-03-12T17:27:48.534Z,6.13
2023-03-12T17:30:15.113Z,6.02
2023-03-12T17:32:41.748Z,6.09
2023-03-12T17:35:08.460Z,6.16
2023-03-12T17:37:35.124Z,5.88
2023-03-12T17:40:08.927Z,5.93
2023-03-12T17:42:36.045Z,5.96
2023-03-12T17:45:03.880Z,5.87
2023-03-12T17:47:31.055Z,5.81
2023-03-12T17:49:59.441Z,5.78
2023-03-12T17:52:26.084Z,5.84
2023-03-12T17:54:52.637Z,5.94
2023-03-12T17:57:19.303Z,5.96
2023-03-12T17:59:45.878Z,5.75
2023-03-12T18:02:14.358Z,5.62
2023-03-12T18:04:41.171Z,5.69
2023-03-12T18:07:07.987Z,5.40
2023-03-12T18:09:34.637Z,5.45
2023-03-12T18:12:01.241Z,5.63
2023-03-12T18:14:28.036Z,5.72
2023-03-12T18:16:54.930Z,5.70
2023-03-12T18:19:21.605Z,5.55
2023-03-12T18:21:48.209Z,5.58
2023-03-12T18:24:14.994Z,5.48
2023-03-12T18:26:41.835Z,5.49
2023-03-12T18:29:08.437Z,5.22
2023-03-12T18:31:35.098Z,5.38
2023-03-12T18:34:01.675Z,5.41
2023-03-12T18:36:28.357Z,5.34
2023-03-12T18:38:54.986Z,5.51
2023-03-12T18:41:21.619Z,5.43
2023-03-12T18:43:48.250Z,5.59
2023-03-12T18:46:15.074Z,5.30
2023-03-12T18:48:44.067Z,5.43
2023-03-12T18:51:11.062Z,5.52
2023-03-12T18:53:37.673Z,5.48
2023-03-12T18:56:04.528Z,5.44
2023-03-12T18:58:31.161Z,5.47
2023-03-12T19:00:58.734Z,5.46
2023-03-12T19:03:26.050Z,5.60
2023-03-12T19:06:05.871Z,5.30
2023-03-12T19:08:32.571Z,5.37
2023-03-12T19:10:59.234Z,5.27
2023-03-12T19:13:26.160Z,5.32
2023-03-12T19:16:00.568Z,5.49
2023-03-12T19:18:27.710Z,5.49
2023-03-12T19:20:54.715Z,5.38
2023-03-12T19:23:21.602Z,5.48
2023-03-12T19:25:48.744Z,5.48
2023-03-12T19:28:15.318Z,5.31
2023-03-12T19:30:41.909Z,5.48
2023-03-12T19:33:08.760Z,5.32
2023-03-12T19:35:41.955Z,5.53
2023-03-12T19:38:08.985Z,5.41
2023-03-12T19:40:35.711Z,5.50
2023-03-12T19:43:02.466Z,5.64
2023-03-12T19:45:29.238Z,5.66
2023-03-12T19:47:55.900Z,5.68
2023-03-12T19:50:23.919Z,5.66
2023-03-12T19:52:50.546Z,5.65
2023-03-12T19:55:17.185Z,5.63
2023-03-12T19:57:43.752Z,5.70
2023-03-12T20:00:12.323Z,5.58
2023-03-12T20:02:39.721Z,5.64
2023-03-12T20:05:07.108Z,5.52
2023-03-12T20:07:33.968Z,5.70
2023-03-12T20:10:00.765Z,5.66
2023-03-12T20:12:27.357Z,5.73
2023-03-12T20:14:53.975Z,5.85
2023-03-12T20:17:20.629Z,5.94
2023-03-12T20:19:47.197Z,6.02
2023-03-12T20:22:13.829Z,6.18
2023-03-12T20:24:40.456Z,6.06
2023-03-12T20:27:07.138Z,6.13
2023-03-12T20:29:33.694Z,6.29
2023-03-12T20:32:00.449Z,6.15
2023-03-12T20:34:27.132Z,6.34
2023-03-12T20:36:53.743Z,6.40
2023-03-12T20:39:20.351Z,6.36
2023-03-12T20:41:49.006Z,6.41
2023-03-12T20:44:15.641Z,6.54
2023-03-12T20:46:42.210Z,6.62
2023-03-12T20:49:08.773Z,6.48
2023-03-12T20:51:35.358Z,6.60
2023-03-12T20:54:01.930Z,6.54
2023-03-12T20:56:28.677Z,6.59
2023-03-12T20:58:55.454Z,6.71
2023-03-12T21:01:22.069Z,6.64
2023-03-12T21:03:48.700Z,6.80
2023-03-12T21:06:15.256Z,6.74
2023-03-12T21:08:41.833Z,6.76
2023-03-12T21:11:08.610Z,6.84
2023-03-12T21:13:36.360Z,6.84
2023-03-12T21:16:06.132Z,6.91
2023-03-12T21:18:32.873Z,6.89
2023-03-12T21:21:07.471Z,6.95
2023-03-12T21:23:34.747Z,6.97
2023-03-12T21:26:09.078Z,6.84
2023-03-12T21:28:36.341Z,6.86
2023-03-12T21:31:11.780Z,6.96
2023-03-12T21:33:38.454Z,7.00
2023-03-12T21:36:06.611Z,7.01
2023-03-12T21:38:35.522Z,7.03
2023-03-12T21:41:06.763Z,6.97
2023-03-12T21:43:33.310Z,7.12
2023-03-12T21:46:07.631Z,6.56
2023-03-12T21:48:34.962Z,6.79
2023-03-12T21:51:05.777Z,6.93
2023-03-12T21:53:32.552Z,6.97
2023-03-12T21:56:00.363Z,7.00
2023-03-12T21:58:27.981Z,7.00
2023-03-12T22:01:16.467Z,7.17
2023-03-12T22:03:44.728Z,7.16
2023-03-12T22:06:12.003Z,7.02
2023-03-12T22:08:39.193Z,7.17
2023-03-12T22:11:06.999Z,7.13
2023-03-12T22:13:33.817Z,7.26
2023-03-12T22:16:02.593Z,7.22
2023-03-12T22:18:29.564Z,7.25
2023-03-12T22:21:03.288Z,7.35
2023-03-12T22:23:30.206Z,7.40
2023-03-12T22:26:00.478Z,7.34
2023-03-12T22:28:27.163Z,7.39
2023-03-12T22:31:01.824Z,7.27
2023-03-12T22:33:28.941Z,7.32
2023-03-12T22:35:55.577Z,7.40
2023-03-12T22:38:22.964Z,7.22
2023-03-12T22:40:49.666Z,7.36
2023-03-12T22:43:16.445Z,7.49
2023-03-12T22:45:43.050Z,7.49
2023-03-12T22:48:09.663Z,7.41
2023-03-12T22:50:36.259Z,7.51
2023-03-12T22:53:02.830Z,7.59
2023-03-12T22:55:29.397Z,7.57
2023-03-12T22:57:55.976Z,7.58
2023-03-12T23:00:23.130Z,7.53
2023-03-12T23:02:50.252Z,7.40
2023-03-12T23:05:16.871Z,7.63
2023-03-12T23:07:43.499Z,7.62
2023-03-12T23:10:10.464Z,7.73
2023-03-12T23:12:37.037Z,7.63
2023-03-12T23:15:03.862Z,7.63
2023-03-12T23:17:30.525Z,7.67
2023-03-12T23:19:57.063Z,7.78
2023-03-12T23:22:23.618Z,7.86
2023-03-12T23:24:50.985Z,7.79
2023-03-12T23:27:17.535Z,7.88
2023-03-12T23:29:44.089Z,7.73
2023-03-12T23:32:10.641Z,7.70
2023-03-12T23:34:37.218Z,7.70
2023-03-12T23:37:03.858Z,7.85
2023-03-12T23:39:30.992Z,7.89
2023-03-12T23:41:57.939Z,7.87
2023-03-12T23:44:24.850Z,7.88
2023-03-12T23:46:51.457Z,7.94
2023-03-12T23:49:18.028Z,7.90
2023-03-12T23:51:44.612Z,8.02
2023-03-12T23:54:11.198Z,8.06
2023-03-12T23:56:39.512Z,7.90
2023-03-12T23:59:08.056Z,8.00
